createdAt,value
2023-04-21T00:01:30.071Z,11.20
2023-04-21T00:03:58.135Z,15.70
2023-04-21T00:06:27.042Z,13.10
2023-04-21T00:08:54.974Z,14.40
2023-04-21T00:11:22.891Z,16.80
2023-04-21T00:13:50.773Z,14.40
2023-04-21T00:16:18.527Z,16.20
2023-04-21T00:18:48.000Z,13.40
2023-04-21T00:21:16.383Z,13.70
2023-04-21T00:23:44.213Z,15.10
2023-04-21T00:26:11.955Z,10.00
2023-04-21T00:28:42.089Z,19.60
2023-04-21T00:31:09.980Z,12.00
2023-04-21T00:33:37.838Z,12.50
2023-04-21T00:36:06.219Z,10.50
2023-04-21T00:38:34.054Z,13.50
2023-04-21T00:41:01.938Z,12.20
2023-04-21T00:43:29.868Z,15.10
2023-04-21T00:45:57.984Z,15.80
2023-04-21T00:48:25.740Z,13.30
2023-04-21T00:50:53.738Z,15.60
2023-04-21T00:53:22.233Z,12.10
2023-04-21T00:55:50.607Z,10.50
2023-04-21T00:58:18.471Z,10.20
2023-04-21T01:00:46.336Z,8.90
2023-04-21T01:03:14.433Z,14.20
2023-04-21T01:05:42.888Z,13.30
2023-04-21T01:08:13.394Z,10.20
2023-04-21T01:10:41.207Z,12.10
2023-04-21T01:13:09.175Z,11.90
2023-04-21T01:15:36.916Z,12.60
2023-04-21T01:18:06.131Z,12.00
2023-04-21T01:20:34.520Z,15.50
2023-04-21T01:23:02.340Z,12.50
2023-04-21T01:25:30.266Z,15.50
2023-04-21T01:27:58.134Z,12.10
2023-04-21T01:30:25.848Z,13.50
2023-04-21T01:32:53.822Z,9.10
2023-04-21T01:35:21.673Z,8.50
2023-04-21T01:37:49.601Z,9.60
2023-04-21T01:40:19.977Z,11.70
2023-04-21T01:42:47.786Z,12.70
2023-04-21T01:45:15.655Z,12.20
2023-04-21T01:47:43.569Z,10.20
2023-04-21T01:50:11.679Z,11.80
2023-04-21T01:52:39.454Z,12.10
2023-04-21T01:55:07.669Z,12.90
2023-04-21T01:57:36.232Z,8.10
2023-04-21T02:00:05.237Z,12.00
2023-04-21T02:02:43.086Z,13.20
2023-04-21T02:05:14.189Z,14.50
2023-04-21T02:07:42.953Z,11.10
2023-04-21T02:10:11.589Z,13.40
2023-04-21T02:12:39.335Z,11.50
2023-04-21T02:15:07.821Z,10.80
2023-04-21T02:17:36.774Z,12.30
2023-04-21T02:20:05.770Z,17.10
2023-04-21T02:22:33.690Z,13.70
2023-04-21T02:25:05.747Z,12.60
2023-04-21T02:27:33.877Z,11.10
2023-04-21T02:30:02.184Z,14.50
2023-04-21T02:32:30.301Z,15.30
2023-04-21T02:34:58.121Z,14.90
2023-04-21T02:37:26.654Z,15.20
2023-04-21T02:39:54.433Z,11.60
2023-04-21T02:42:22.150Z,12.00
2023-04-21T02:44:50.090Z,14.80
2023-04-21T02:47:17.919Z,16.00
2023-04-21T02:49:45.750Z,12.20
2023-04-21T02:52:13.652Z,17.60
2023-04-21T02:54:41.627Z,11.20
2023-04-21T02:57:09.950Z,12.50
2023-04-21T02:59:37.760Z,12.00
2023-04-21T03:02:05.624Z,14.40
2023-04-21T03:04:34.302Z,15.30
2023-04-21T03:07:02.303Z,14.00
2023-04-21T03:09:30.049Z,14.80
2023-04-21T03:11:57.796Z,14.30
2023-04-21T03:14:25.602Z,14.40
2023-04-21T03:16:53.459Z,16.20
2023-04-21T03:19:21.580Z,13.30
2023-04-21T03:21:49.659Z,21.40
2023-04-21T03:24:17.496Z,13.20
2023-04-21T03:26:45.304Z,17.90
2023-04-21T03:29:13.069Z,13.40
2023-04-21T03:31:40.799Z,13.40
2023-04-21T03:34:08.521Z,15.40
2023-04-21T03:36:36.255Z,20.60
2023-04-21T03:39:16.908Z,15.70
2023-04-21T03:41:48.400Z,15.70
2023-04-21T03:44:16.151Z,13.90
2023-04-21T03:46:43.995Z,14.10
2023-04-21T03:49:11.736Z,14.80
2023-04-21T03:51:39.463Z,15.10
2023-04-21T03:54:08.421Z,13.90
2023-04-21T03:56:36.260Z,22.90
2023-04-21T03:59:04.480Z,13.40
2023-04-21T04:02:48.813Z,19.20
2023-04-21T04:05:16.807Z,14.70
2023-04-21T04:07:45.282Z,20.20
2023-04-21T04:10:13.177Z,14.20
2023-04-21T04:12:41.138Z,12.70
2023-04-21T04:15:09.619Z,12.70
2023-04-21T04:17:37.582Z,30.80
2023-04-21T04:20:08.450Z,15.70
2023-04-21T04:22:36.379Z,18.30
2023-04-21T04:25:05.410Z,17.40
2023-04-21T04:27:34.691Z,15.50
2023-04-21T04:34:38.446Z,17.00
2023-04-21T04:37:06.682Z,14.20
2023-04-21T04:39:35.166Z,10.70
2023-04-21T04:42:03.820Z,10.80
2023-04-21T04:44:31.956Z,10.00
2023-04-21T05:53:46.405Z,8.00
2023-04-21T05:56:14.804Z,8.60
2023-04-21T05:58:42.910Z,10.40
2023-04-21T06:01:11.512Z,8.50
2023-04-21T06:03:39.696Z,7.20
2023-04-21T06:06:11.586Z,5.80
2023-04-21T06:08:39.758Z,10.00
2023-04-21T06:11:07.716Z,7.90
2023-04-21T06:13:38.180Z,5.80
2023-04-21T06:16:07.171Z,7.90
2023-04-21T08:49:51.345Z,2.80
2023-04-21T08:52:19.850Z,2.80
2023-04-21T08:54:52.041Z,6.50
2023-04-21T08:59:48.591Z,11.80
2023-04-21T09:02:19.491Z,4.60
2023-04-21T09:04:52.905Z,3.90
2023-04-21T09:07:32.278Z,4.90
2023-04-21T09:10:00.878Z,5.40
2023-04-21T09:12:30.096Z,3.40
2023-04-21T09:14:58.968Z,3.40
2023-04-21T09:17:37.024Z,2.60
2023-04-21T09:20:17.941Z,5.80
2023-04-21T09:22:49.810Z,5.20
2023-04-21T09:25:20.718Z,5.00
2023-04-21T09:27:49.090Z,6.10
2023-04-21T09:30:20.777Z,7.70
2023-04-21T09:32:49.882Z,3.20
2023-04-21T09:35:18.397Z,3.90
2023-04-21T09:37:46.676Z,4.00
2023-04-21T09:40:17.857Z,3.50
2023-04-21T09:42:46.537Z,3.40
2023-04-21T09:47:53.052Z,3.20
2023-04-21T09:50:41.840Z,4.20
2023-04-21T09:53:16.670Z,2.80
2023-04-21T09:55:48.387Z,4.30
2023-04-21T09:58:20.392Z,4.10
2023-04-21T10:00:49.661Z,3.30
2023-04-21T10:03:19.976Z,2.90
2023-04-21T10:05:48.298Z,2.10
2023-04-21T10:08:17.344Z,4.00
2023-04-21T10:10:46.319Z,2.20
2023-04-21T10:13:18.633Z,3.50
2023-04-21T10:15:46.809Z,4.30
2023-04-21T10:18:20.055Z,3.60
2023-04-21T10:21:22.277Z,5.90
2023-04-21T10:23:54.620Z,5.50
2023-04-21T10:26:38.357Z,2.70
2023-04-21T10:29:09.634Z,2.80
2023-04-21T10:31:51.488Z,4.30
2023-04-21T10:34:34.800Z,2.00
2023-04-21T10:37:06.254Z,5.50
2023-04-21T10:39:42.576Z,1.50
2023-04-21T10:42:13.937Z,3.80
2023-04-21T10:44:52.330Z,3.50
2023-04-21T10:47:41.211Z,2.70
2023-04-21T10:50:12.816Z,4.80
2023-04-21T10:52:47.631Z,2.40
2023-04-21T10:55:17.280Z,5.90
2023-04-21T10:57:45.567Z,4.10
2023-04-21T11:04:37.586Z,3.30
2023-04-21T11:07:08.360Z,3.70
2023-04-21T11:09:38.458Z,3.50
2023-04-21T11:12:11.973Z,2.80
2023-04-21T11:14:42.250Z,4.70
2023-04-21T11:17:18.210Z,8.20
2023-04-21T11:19:56.759Z,5.30
2023-04-21T11:22:26.913Z,3.00
2023-04-21T11:24:57.259Z,2.50
2023-04-21T11:27:32.151Z,1.90
2023-04-21T11:30:03.849Z,4.00
2023-04-21T11:32:31.879Z,3.30
2023-04-21T11:35:00.573Z,10.50
2023-04-21T11:37:28.588Z,4.50
2023-04-21T11:39:58.469Z,2.80
2023-04-21T11:42:27.724Z,6.10
2023-04-21T11:44:57.181Z,29.10
2023-04-21T11:47:28.322Z,2.20
2023-04-21T11:49:58.936Z,3.10
2023-04-21T11:52:33.498Z,5.40
2023-04-21T11:55:08.266Z,3.90
2023-04-21T11:57:36.721Z,3.90
2023-04-21T12:00:06.754Z,4.90
2023-04-21T12:02:35.168Z,2.70
2023-04-21T12:05:13.912Z,7.00
2023-04-21T12:15:12.252Z,9.70
2023-04-21T12:17:48.119Z,2.60
2023-04-21T12:20:17.969Z,4.50
2023-04-21T12:22:46.746Z,2.30
2023-04-21T12:25:15.508Z,4.70
2023-04-21T12:27:51.173Z,2.10
2023-04-21T12:30:20.269Z,5.00
2023-04-21T12:32:48.594Z,5.70
2023-04-21T12:35:16.863Z,6.00
2023-04-21T12:37:45.235Z,2.60
2023-04-21T12:40:13.264Z,3.40
2023-04-21T12:42:41.619Z,4.10
2023-04-21T12:45:10.552Z,4.80
2023-04-21T12:47:39.464Z,3.70
2023-04-21T12:50:08.690Z,3.30
2023-04-21T12:52:36.798Z,11.00
2023-04-21T12:55:05.033Z,4.50
2023-04-21T12:57:33.619Z,4.70
2023-04-21T13:00:01.716Z,7.30
2023-04-21T13:02:31.512Z,2.10
2023-04-21T13:05:00.009Z,5.60
2023-04-21T13:07:31.316Z,2.40
2023-04-21T13:09:59.392Z,1.40
2023-04-21T13:12:27.299Z,5.20
2023-04-21T13:14:55.220Z,3.90
2023-04-21T13:17:23.729Z,3.10
2023-04-21T13:19:52.293Z,3.40
2023-04-21T13:22:20.558Z,6.50
2023-04-21T13:24:48.619Z,5.80
2023-04-21T13:27:16.672Z,7.70
2023-04-21T13:29:44.591Z,3.30
2023-04-21T13:32:15.590Z,8.00
2023-04-21T13:34:43.525Z,2.90
2023-04-21T13:37:16.548Z,2.80
2023-04-21T13:39:44.497Z,4.30
2023-04-21T13:42:12.548Z,4.30
2023-04-21T13:44:40.707Z,1.90
2023-04-21T13:47:11.788Z,4.50
2023-04-21T13:49:40.230Z,4.10
2023-04-21T13:52:08.236Z,7.50
2023-04-21T13:54:36.159Z,4.50
2023-04-21T13:57:05.624Z,4.40
2023-04-21T13:59:34.332Z,2.50
2023-04-21T14:02:02.710Z,6.80
2023-04-21T14:04:31.259Z,3.20
2023-04-21T14:07:00.255Z,2.20
2023-04-21T14:09:28.669Z,1.70
2023-04-21T14:11:57.044Z,1.70
2023-04-21T14:14:37.754Z,6.70
2023-04-21T14:17:07.976Z,4.00
2023-04-21T14:19:36.820Z,5.10
2023-04-21T14:22:04.999Z,5.90
2023-04-21T14:24:33.061Z,2.30
2023-04-21T14:27:01.229Z,8.10
2023-04-21T14:29:29.203Z,6.40
2023-04-21T14:31:58.792Z,8.90
2023-04-21T14:34:27.216Z,4.30
2023-04-21T14:36:55.969Z,3.50
2023-04-21T14:39:24.462Z,2.90
2023-04-21T14:41:52.495Z,5.40
2023-04-21T14:44:20.648Z,3.40
2023-04-21T14:47:00.868Z,5.70
2023-04-21T14:49:34.517Z,4.60
2023-04-21T14:52:03.843Z,7.10
2023-04-21T14:54:31.972Z,3.30
2023-04-21T14:57:17.828Z,3.00
2023-04-21T14:59:47.009Z,3.40
2023-04-21T15:02:15.662Z,3.30
2023-04-21T15:04:44.246Z,2.70
2023-04-21T15:07:12.827Z,3.80
2023-04-21T15:09:45.769Z,2.40
2023-04-21T15:12:15.295Z,2.60
2023-04-21T15:14:43.426Z,1.80
2023-04-21T15:17:11.684Z,2.90
2023-04-21T15:19:39.789Z,4.70
2023-04-21T15:22:07.915Z,5.20
2023-04-21T15:24:35.972Z,3.50
2023-04-21T15:27:04.313Z,3.90
2023-04-21T15:29:32.721Z,2.80
2023-04-21T15:32:00.952Z,4.30
2023-04-21T15:34:28.802Z,5.00
2023-04-21T15:36:57.480Z,3.90
2023-04-21T15:39:25.861Z,9.90
2023-04-21T15:41:55.221Z,7.80
2023-04-21T15:44:23.278Z,3.30
2023-04-21T15:46:51.400Z,6.90
2023-04-21T15:49:19.384Z,7.20
2023-04-21T15:51:47.358Z,3.80
2023-04-21T15:54:16.259Z,6.60
2023-04-21T15:56:44.240Z,4.30
2023-04-21T15:59:12.177Z,4.50
2023-04-21T16:01:40.404Z,3.20
2023-04-21T16:04:08.820Z,2.80
2023-04-21T16:06:38.079Z,4.90
2023-04-21T16:09:06.308Z,3.70
2023-04-21T16:11:34.543Z,4.00
2023-04-21T16:14:02.710Z,2.30
2023-04-21T16:16:30.649Z,2.60
2023-04-21T16:18:58.829Z,3.30
2023-04-21T16:21:27.995Z,7.30
2023-04-21T16:23:56.429Z,4.00
2023-04-21T16:26:27.797Z,4.10
2023-04-21T16:28:57.140Z,2.80
2023-04-21T16:31:25.621Z,3.80
2023-04-21T16:33:59.410Z,3.50
2023-04-21T16:36:28.468Z,2.90
2023-04-21T16:38:57.384Z,2.60
2023-04-21T16:41:25.524Z,5.20
2023-04-21T16:43:53.573Z,4.20
2023-04-21T16:46:22.144Z,6.10
2023-04-21T16:48:50.109Z,6.00
2023-04-21T16:51:18.098Z,4.30
2023-04-21T16:53:46.120Z,3.70
2023-04-21T16:56:14.891Z,7.90
2023-04-21T16:58:43.038Z,3.50
2023-04-21T17:01:11.647Z,7.80
2023-04-21T17:03:39.704Z,3.10
2023-04-21T17:06:10.851Z,5.20
2023-04-21T17:08:38.882Z,3.10
2023-04-21T17:11:06.936Z,6.00
2023-04-21T17:13:38.203Z,5.70
2023-04-21T17:16:09.681Z,3.90
2023-04-21T17:18:37.641Z,3.40
2023-04-21T17:21:06.371Z,3.50
2023-04-21T17:23:34.725Z,5.60
2023-04-21T17:26:03.762Z,17.40
2023-04-21T17:28:32.162Z,7.60
2023-04-21T17:31:13.633Z,5.80
2023-04-21T17:33:43.873Z,2.50
2023-04-21T17:36:12.405Z,4.10
2023-04-21T17:38:42.704Z,5.90
2023-04-21T17:41:11.547Z,4.20
2023-04-21T17:43:39.593Z,3.20
2023-04-21T17:46:07.902Z,7.30
2023-04-21T17:48:35.960Z,9.70
2023-04-21T17:51:04.147Z,3.40
2023-04-21T17:53:32.137Z,4.40
2023-04-21T17:56:00.231Z,3.40
2023-04-21T17:58:28.483Z,7.10
2023-04-21T18:00:57.177Z,6.20
2023-04-21T18:03:25.788Z,2.90
2023-04-21T18:05:55.061Z,6.80
2023-04-21T18:08:23.366Z,3.80
2023-04-21T18:10:51.270Z,7.60
2023-04-21T18:13:19.482Z,4.70
2023-04-21T18:15:47.472Z,6.30
2023-04-21T18:18:15.460Z,8.00
2023-04-21T18:20:43.544Z,21.20
2023-04-21T18:23:11.855Z,12.70
2023-04-21T18:25:42.930Z,13.90
2023-04-21T18:28:12.820Z,17.90
2023-04-21T18:30:41.448Z,14.00
2023-04-21T18:33:11.784Z,17.80
2023-04-21T18:35:42.096Z,26.80
2023-04-21T18:38:11.960Z,21.70
2023-04-21T18:40:41.379Z,25.60
2023-04-21T18:43:10.616Z,32.30
2023-04-21T18:45:39.313Z,19.80
2023-04-21T18:48:07.529Z,23.80
2023-04-21T18:50:39.859Z,27.60
2023-04-21T18:53:09.141Z,26.20
2023-04-21T18:55:37.731Z,35.50
2023-04-21T18:58:06.520Z,22.10
2023-04-21T19:04:36.721Z,33.90
2023-04-21T19:07:08.307Z,30.30
2023-04-21T19:09:37.476Z,28.60
2023-04-21T19:12:05.645Z,46.90
2023-04-21T19:14:42.708Z,35.20
2023-04-21T19:17:14.480Z,38.20
2023-04-21T19:19:43.163Z,44.10
2023-04-21T19:22:11.111Z,41.70
2023-04-21T19:24:39.342Z,35.30
2023-04-21T19:27:08.086Z,41.60
2023-04-21T19:29:37.102Z,34.60
2023-04-21T19:32:05.144Z,25.50
2023-04-21T19:34:33.113Z,31.70
2023-04-21T19:37:01.248Z,26.20
2023-04-21T19:39:29.368Z,29.90
2023-04-21T19:41:58.032Z,28.60
2023-04-21T19:44:25.936Z,30.30
2023-04-21T19:46:53.900Z,26.80
2023-04-21T19:49:21.833Z,27.70
2023-04-21T19:51:49.797Z,27.60
2023-04-21T19:54:17.871Z,28.90
2023-04-21T19:56:45.843Z,34.40
2023-04-21T19:59:13.892Z,38.10
2023-04-21T20:01:41.949Z,43.60
2023-04-21T20:04:11.982Z,42.90
2023-04-21T20:06:41.561Z,44.90
2023-04-21T20:09:10.547Z,34.10
2023-04-21T20:11:38.496Z,48.60
2023-04-21T20:14:06.451Z,46.00
2023-04-21T20:16:34.606Z,43.00
2023-04-21T20:19:02.712Z,43.40
2023-04-21T20:21:30.638Z,33.70
2023-04-21T20:23:58.646Z,35.90
2023-04-21T20:26:26.700Z,37.80
2023-04-21T20:28:54.921Z,34.70
2023-04-21T20:31:25.723Z,42.20
2023-04-21T20:33:53.850Z,48.70
2023-04-21T20:36:22.286Z,54.40
2023-04-21T20:38:50.832Z,38.10
2023-04-21T20:41:18.769Z,42.00
2023-04-21T20:43:46.713Z,37.80
2023-04-21T20:46:15.643Z,30.80
2023-04-21T20:48:43.616Z,31.30
2023-04-21T20:51:12.411Z,29.00
2023-04-21T20:53:40.527Z,21.30
2023-04-21T20:56:08.614Z,25.50
2023-04-21T20:58:36.763Z,26.80
2023-04-21T21:01:04.863Z,22.60
2023-04-21T21:03:33.033Z,23.70
2023-04-21T21:06:01.074Z,24.40
2023-04-21T21:08:29.236Z,25.10
2023-04-21T21:10:57.646Z,36.60
2023-04-21T21:13:25.990Z,17.70
2023-04-21T21:15:54.025Z,19.40
2023-04-21T21:18:21.930Z,24.90
2023-04-21T21:20:49.861Z,27.10
2023-04-21T21:23:17.803Z,20.90
2023-04-21T21:25:45.820Z,29.40
2023-04-21T21:28:13.660Z,23.30
2023-04-21T21:30:41.576Z,28.00
2023-04-21T21:33:09.519Z,24.30
2023-04-21T21:35:37.570Z,26.70
2023-04-21T21:38:05.627Z,18.90
2023-04-21T21:40:33.570Z,26.30
2023-04-21T21:43:01.747Z,26.40
2023-04-21T21:45:29.839Z,27.60
2023-04-21T21:47:58.095Z,33.60
2023-04-21T21:50:26.084Z,29.60
2023-04-21T21:52:54.129Z,31.00
2023-04-21T21:55:22.229Z,37.40
2023-04-21T21:57:50.478Z,37.80
2023-04-21T22:00:18.755Z,40.00
2023-04-21T22:02:46.678Z,33.50
2023-04-21T22:05:15.061Z,27.70
2023-04-21T22:07:43.173Z,27.90
2023-04-21T22:10:11.913Z,26.30
2023-04-21T22:12:39.926Z,19.90
2023-04-21T22:15:08.947Z,23.20
2023-04-21T22:17:37.972Z,22.60
2023-04-21T22:20:07.539Z,21.50
2023-04-21T22:22:36.164Z,20.70
2023-04-21T22:25:05.754Z,26.40
2023-04-21T22:27:34.257Z,20.30
2023-04-21T22:30:03.644Z,21.70
2023-04-21T22:32:32.538Z,22.10
2023-04-21T22:35:01.486Z,22.90
2023-04-21T22:37:29.866Z,25.20
2023-04-21T22:39:57.836Z,23.70
2023-04-21T22:42:26.153Z,24.00
2023-04-21T22:44:54.200Z,21.90
2023-04-21T22:47:22.802Z,19.30
2023-04-21T22:49:51.535Z,25.80
2023-04-21T22:52:19.512Z,27.50
2023-04-21T22:54:47.505Z,18.90
2023-04-21T22:57:15.479Z,21.30
2023-04-21T22:59:43.403Z,17.70
2023-04-21T23:02:11.604Z,19.00
2023-04-21T23:04:39.614Z,19.20
2023-04-21T23:07:07.791Z,19.20
2023-04-21T23:09:35.865Z,28.50
2023-04-21T23:12:06.115Z,18.10
2023-04-21T23:14:34.237Z,28.50
2023-04-21T23:17:02.293Z,17.30
2023-04-21T23:19:30.273Z,20.90
2023-04-21T23:21:58.262Z,19.90
2023-04-21T23:24:26.312Z,24.40
2023-04-21T23:26:54.226Z,23.30
2023-04-21T23:29:22.133Z,27.60
2023-04-21T23:31:50.182Z,27.10
2023-04-21T23:34:18.181Z,24.20
2023-04-21T23:36:46.100Z,20.90
2023-04-21T23:39:14.124Z,24.60
2023-04-21T23:41:42.526Z,22.80
2023-04-21T23:44:11.283Z,23.70
2023-04-21T23:46:39.443Z,21.40
2023-04-21T23:49:08.984Z,30.80
2023-04-21T23:51:37.224Z,32.50
2023-04-21T23:54:05.351Z,25.70
2023-04-21T23:56:33.418Z,23.70
2023-04-21T23:59:01.711Z,31.00
